createdAt,value
2022-10-11T00:00:58.964Z,17.60
2022-10-11T00:03:27.519Z,17.50
2022-10-11T00:05:55.684Z,17.50
2022-10-11T00:08:24.489Z,17.50
2022-10-11T00:11:01.713Z,17.50
2022-10-11T00:13:30.302Z,17.50
2022-10-11T00:15:59.344Z,17.50
2022-10-11T00:18:27.656Z,17.50
2022-10-11T00:21:03.602Z,17.40
2022-10-11T00:23:31.878Z,17.40
2022-10-11T00:26:03.817Z,17.40
2022-10-11T00:28:32.565Z,17.40
2022-10-11T00:31:01.630Z,17.40
2022-10-11T00:33:29.970Z,17.40
2022-10-11T00:36:00.624Z,17.30
2022-10-11T00:38:30.051Z,17.30
2022-10-11T00:41:01.728Z,17.20
2022-10-11T00:43:32.351Z,17.20
2022-10-11T00:46:05.173Z,17.20
2022-10-11T00:48:41.427Z,17.10
2022-10-11T00:51:17.956Z,17.10
2022-10-11T00:53:48.686Z,17.10
2022-10-11T00:56:22.370Z,17.10
2022-10-11T00:58:50.819Z,17.10
2022-10-11T01:01:19.695Z,17.10
2022-10-11T01:03:48.122Z,17.10
2022-10-11T01:06:16.715Z,17.00
2022-10-11T01:08:45.964Z,17.00
2022-10-11T01:11:18.820Z,17.00
2022-10-11T01:13:57.421Z,17.00
2022-10-11T01:16:33.379Z,17.00
2022-10-11T01:19:13.429Z,17.00
2022-10-11T01:21:47.796Z,17.00
2022-10-11T01:24:46.332Z,17.00
2022-10-11T01:27:41.987Z,16.90
2022-10-11T01:30:23.606Z,16.90
2022-10-11T01:36:03.832Z,16.80
2022-10-11T01:38:36.820Z,16.80
2022-10-11T01:41:09.309Z,16.80
2022-10-11T01:43:40.333Z,16.80
2022-10-11T01:46:11.892Z,16.70
2022-10-11T01:48:49.683Z,16.70
2022-10-11T01:51:18.946Z,16.70
2022-10-11T01:54:26.002Z,16.70
2022-10-11T01:57:17.585Z,16.70
2022-10-11T01:59:56.822Z,16.70
2022-10-11T02:02:40.174Z,16.70
2022-10-11T02:05:13.753Z,16.70
2022-10-11T02:07:46.201Z,16.70
2022-10-11T02:10:21.032Z,16.70
2022-10-11T02:12:54.935Z,16.70
2022-10-11T02:15:24.383Z,16.60
2022-10-11T02:17:58.264Z,16.60
2022-10-11T02:20:29.198Z,16.60
2022-10-11T02:23:04.318Z,16.60
2022-10-11T02:25:36.003Z,16.60
2022-10-11T02:28:09.684Z,16.60
2022-10-11T02:30:39.109Z,16.60
2022-10-11T02:33:12.747Z,16.60
2022-10-11T02:35:45.487Z,16.60
2022-10-11T02:38:22.104Z,16.60
2022-10-11T02:40:58.040Z,16.50
2022-10-11T02:43:31.574Z,16.50
2022-10-11T02:46:02.228Z,16.50
2022-10-11T02:48:33.447Z,16.40
2022-10-11T02:51:01.973Z,16.40
2022-10-11T02:53:30.090Z,16.40
2022-10-11T02:55:58.907Z,16.40
2022-10-11T02:58:26.979Z,16.40
2022-10-11T03:00:55.495Z,16.40
2022-10-11T03:03:23.996Z,16.40
2022-10-11T03:05:59.569Z,16.40
2022-10-11T03:08:28.310Z,16.40
2022-10-11T03:10:56.527Z,16.40
2022-10-11T03:13:25.221Z,16.40
2022-10-11T03:16:02.796Z,16.40
2022-10-11T03:18:35.954Z,16.40
2022-10-11T03:21:05.937Z,16.40
2022-10-11T03:23:34.000Z,16.40
2022-10-11T03:26:02.971Z,16.40
2022-10-11T03:28:31.527Z,16.40
2022-10-11T03:31:00.125Z,16.40
2022-10-11T03:33:28.163Z,16.40
2022-10-11T03:35:56.433Z,16.50
2022-10-11T03:38:26.302Z,16.50
2022-10-11T03:40:54.811Z,16.50
2022-10-11T03:43:23.327Z,16.50
2022-10-11T03:45:51.330Z,16.50
2022-10-11T03:48:21.140Z,16.50
2022-10-11T03:50:49.838Z,16.50
2022-10-11T03:53:18.359Z,16.50
2022-10-11T03:55:48.372Z,16.50
2022-10-11T03:58:16.465Z,16.50
2022-10-11T04:00:44.884Z,16.50
2022-10-11T04:03:13.495Z,16.50
2022-10-11T04:05:42.139Z,16.50
2022-10-11T04:08:12.377Z,16.50
2022-10-11T04:10:41.526Z,16.50
2022-10-11T04:13:12.183Z,16.50
2022-10-11T04:15:41.317Z,16.40
2022-10-11T04:18:10.584Z,16.50
2022-10-11T04:20:38.829Z,16.40
2022-10-11T04:23:07.346Z,16.40
2022-10-11T04:25:35.471Z,16.40
2022-10-11T04:28:03.702Z,16.40
2022-10-11T04:30:33.170Z,16.40
2022-10-11T04:33:01.720Z,16.40
2022-10-11T04:35:29.838Z,16.40
2022-10-11T04:37:58.376Z,16.50
2022-10-11T04:40:26.486Z,16.40
2022-10-11T04:42:54.742Z,16.50
2022-10-11T04:45:22.883Z,16.50
2022-10-11T04:47:52.342Z,16.50
2022-10-11T04:50:21.108Z,16.50
2022-10-11T04:52:49.192Z,16.50
2022-10-11T04:55:17.362Z,16.50
2022-10-11T04:57:45.931Z,16.50
2022-10-11T05:00:15.385Z,16.50
2022-10-11T05:02:43.527Z,16.50
2022-10-11T05:05:17.465Z,16.50
2022-10-11T05:07:46.026Z,16.50
2022-10-11T05:10:14.575Z,16.50
2022-10-11T05:12:43.252Z,16.50
2022-10-11T05:15:12.182Z,16.50
2022-10-11T05:17:40.321Z,16.50
2022-10-11T05:20:10.074Z,16.60
2022-10-11T05:22:39.544Z,16.60
2022-10-11T05:25:08.554Z,16.50
2022-10-11T05:27:36.653Z,16.50
2022-10-11T05:30:07.271Z,16.60
2022-10-11T05:32:35.963Z,16.50
2022-10-11T05:35:04.878Z,16.50
2022-10-11T05:37:33.390Z,16.60
2022-10-11T05:40:02.828Z,16.60
2022-10-11T05:42:31.308Z,16.60
2022-10-11T05:44:59.424Z,16.60
2022-10-11T05:47:28.020Z,16.60
2022-10-11T05:49:56.086Z,16.60
2022-10-11T05:52:24.400Z,16.60
2022-10-11T05:54:52.987Z,16.60
2022-10-11T05:57:22.476Z,16.50
2022-10-11T05:59:51.477Z,16.50
2022-10-11T06:02:19.523Z,16.60
2022-10-11T06:04:48.454Z,16.60
2022-10-11T06:07:16.556Z,16.60
2022-10-11T06:09:45.080Z,16.50
2022-10-11T06:12:13.153Z,16.50
2022-10-11T06:14:43.599Z,16.50
2022-10-11T06:17:11.758Z,16.50
2022-10-11T06:19:39.845Z,16.60
2022-10-11T06:22:07.960Z,16.60
2022-10-11T06:24:36.051Z,16.60
2022-10-11T06:27:04.259Z,16.50
2022-10-11T06:29:32.416Z,16.60
2022-10-11T06:32:02.010Z,16.60
2022-10-11T06:34:30.629Z,16.60
2022-10-11T06:36:58.707Z,16.60
2022-10-11T06:39:27.347Z,16.60
2022-10-11T06:41:55.412Z,16.60
2022-10-11T06:44:23.525Z,16.60
2022-10-11T06:46:52.015Z,16.60
2022-10-11T06:49:23.454Z,16.60
2022-10-11T06:51:52.388Z,16.60
2022-10-11T06:54:20.804Z,16.60
2022-10-11T06:56:49.388Z,16.60
2022-10-11T06:59:17.458Z,16.60
2022-10-11T07:01:46.176Z,16.60
2022-10-11T07:04:14.279Z,16.60
2022-10-11T07:06:44.162Z,16.60
2022-10-11T07:09:12.348Z,16.70
2022-10-11T07:11:40.474Z,16.70
2022-10-11T07:14:08.954Z,16.70
2022-10-11T07:16:38.104Z,16.70
2022-10-11T07:19:07.628Z,16.70
2022-10-11T07:21:37.074Z,16.70
2022-10-11T07:24:07.445Z,16.70
2022-10-11T07:26:38.538Z,16.70
2022-10-11T07:29:09.105Z,16.70
2022-10-11T07:31:39.644Z,16.80
2022-10-11T07:34:08.531Z,16.80
2022-10-11T07:36:36.897Z,16.80
2022-10-11T07:39:08.007Z,16.80
2022-10-11T07:41:40.632Z,16.80
2022-10-11T07:44:11.351Z,16.80
2022-10-11T07:46:39.902Z,16.80
2022-10-11T07:49:07.981Z,16.80
2022-10-11T07:51:36.472Z,16.80
2022-10-11T07:54:07.521Z,16.80
2022-10-11T07:56:36.015Z,16.90
2022-10-11T07:59:04.861Z,16.90
2022-10-11T08:01:33.767Z,16.90
2022-10-11T08:04:02.418Z,16.90
2022-10-11T08:06:32.752Z,17.00
2022-10-11T08:09:02.818Z,17.00
2022-10-11T08:11:34.142Z,17.00
2022-10-11T08:14:04.887Z,17.00
2022-10-11T08:16:33.472Z,17.10
2022-10-11T08:19:03.112Z,17.00
2022-10-11T08:21:50.894Z,17.10
2022-10-11T08:24:20.854Z,17.10
2022-10-11T08:26:50.297Z,17.10
2022-10-11T08:29:19.044Z,17.20
2022-10-11T08:31:47.181Z,17.10
2022-10-11T08:34:15.930Z,17.20
2022-10-11T08:36:44.047Z,17.20
2022-10-11T08:39:12.760Z,17.20
2022-10-11T08:41:43.536Z,17.80
2022-10-11T08:44:46.139Z,17.20
2022-10-11T08:47:24.032Z,17.20
2022-10-11T08:49:52.731Z,17.20
2022-10-11T08:52:24.828Z,17.30
2022-10-11T08:54:56.585Z,17.30
2022-10-11T08:57:28.701Z,17.30
2022-10-11T09:00:02.735Z,17.30
2022-10-11T09:03:03.381Z,17.30
2022-10-11T09:05:35.205Z,17.30
2022-10-11T09:08:13.144Z,17.40
2022-10-11T09:10:54.564Z,17.40
2022-10-11T09:13:42.099Z,17.50
2022-10-11T09:16:20.436Z,17.50
2022-10-11T09:19:03.875Z,17.60
2022-10-11T09:21:42.634Z,17.60
2022-10-11T09:24:29.607Z,17.70
2022-10-11T09:26:59.603Z,17.70
2022-10-11T09:29:48.690Z,17.80
2022-10-11T09:32:20.989Z,17.80
2022-10-11T09:34:54.568Z,17.80
2022-10-11T09:37:28.009Z,17.90
2022-10-11T09:40:00.250Z,18.00
2022-10-11T09:42:28.827Z,18.00
2022-10-11T09:44:57.489Z,18.00
2022-10-11T09:47:29.783Z,18.10
2022-10-11T09:50:04.487Z,18.10
2022-10-11T09:52:35.054Z,18.20
2022-10-11T09:55:05.735Z,18.20
2022-10-11T09:57:37.719Z,18.90
2022-10-11T10:00:09.322Z,18.40
2022-10-11T10:02:45.114Z,18.40
2022-10-11T10:05:20.052Z,18.50
2022-10-11T10:08:23.485Z,18.60
2022-10-11T10:11:00.581Z,18.60
2022-10-11T10:13:39.875Z,18.70
2022-10-11T10:16:11.759Z,18.80
2022-10-11T10:18:50.941Z,18.90
2022-10-11T10:21:28.359Z,18.90
2022-10-11T10:23:58.132Z,19.00
2022-10-11T10:26:27.517Z,19.00
2022-10-11T10:29:17.012Z,19.00
2022-10-11T10:34:55.729Z,19.10
2022-10-11T10:37:28.538Z,19.20
2022-10-11T10:40:03.404Z,19.20
2022-10-11T10:42:32.028Z,19.20
2022-10-11T10:45:01.192Z,19.20
2022-10-11T10:47:54.382Z,19.20
2022-10-11T10:50:28.323Z,19.20
2022-10-11T10:53:10.516Z,19.20
2022-10-11T10:55:42.848Z,19.20
2022-10-11T10:58:31.854Z,19.30
2022-10-11T11:01:03.980Z,19.40
2022-10-11T11:03:41.679Z,19.50
2022-10-11T11:06:19.959Z,19.50
2022-10-11T11:09:05.699Z,19.60
2022-10-11T11:11:46.751Z,19.70
2022-10-11T11:14:28.136Z,19.80
2022-10-11T11:17:07.191Z,19.80
2022-10-11T11:20:00.077Z,19.90
2022-10-11T11:22:41.220Z,19.90
2022-10-11T11:25:20.756Z,20.00
2022-10-11T11:27:58.720Z,20.10
2022-10-11T11:30:36.355Z,20.10
2022-10-11T11:33:16.733Z,20.10
2022-10-11T11:35:50.001Z,20.20
2022-10-11T11:38:29.430Z,20.20
2022-10-11T11:41:02.578Z,20.30
2022-10-11T11:43:36.343Z,20.40
2022-10-11T11:46:11.081Z,20.50
2022-10-11T11:48:39.844Z,20.70
2022-10-11T11:51:12.989Z,20.80
2022-10-11T11:53:55.600Z,21.00
2022-10-11T11:56:29.715Z,21.00
2022-10-11T11:59:08.078Z,21.20
2022-10-11T12:01:41.135Z,21.30
2022-10-11T12:04:19.434Z,21.40
2022-10-11T12:07:15.492Z,21.60
2022-10-11T12:09:50.890Z,21.60
2022-10-11T12:12:31.503Z,21.60
2022-10-11T12:15:21.300Z,21.60
2022-10-11T12:18:07.274Z,21.60
2022-10-11T12:20:39.136Z,21.50
2022-10-11T12:23:46.875Z,21.50
2022-10-11T12:26:47.078Z,21.40
2022-10-11T12:29:47.743Z,21.40
2022-10-11T12:32:53.287Z,21.30
2022-10-11T12:35:49.075Z,21.50
2022-10-11T12:38:21.519Z,21.50
2022-10-11T12:40:51.676Z,21.70
2022-10-11T12:43:33.307Z,21.80
2022-10-11T12:46:39.782Z,21.90
2022-10-11T12:49:37.451Z,22.00
2022-10-11T12:52:22.253Z,22.20
2022-10-11T12:55:25.245Z,22.30
2022-10-11T12:58:38.671Z,22.40
2022-10-11T13:01:27.542Z,22.60
2022-10-11T13:04:06.856Z,22.70
2022-10-11T13:06:38.941Z,22.80
2022-10-11T13:09:17.225Z,22.80
2022-10-11T13:11:50.832Z,22.80
2022-10-11T13:14:22.440Z,22.70
2022-10-11T13:17:00.550Z,22.60
2022-10-11T13:19:29.759Z,22.50
2022-10-11T13:22:03.795Z,22.30
2022-10-11T13:24:39.559Z,22.20
2022-10-11T13:27:09.010Z,22.10
2022-10-11T13:29:40.692Z,21.90
2022-10-11T13:32:16.390Z,21.80
2022-10-11T13:34:48.897Z,21.70
2022-10-11T13:37:19.302Z,21.60
2022-10-11T13:39:49.369Z,21.50
2022-10-11T13:42:20.030Z,21.40
2022-10-11T13:44:48.765Z,21.40
2022-10-11T13:47:22.528Z,21.30
2022-10-11T13:50:02.932Z,21.20
2022-10-11T13:52:31.483Z,21.10
2022-10-11T13:55:11.569Z,21.10
2022-10-11T13:57:42.579Z,21.10
2022-10-11T14:00:23.345Z,21.00
2022-10-11T14:02:56.218Z,21.10
2022-10-11T14:05:30.252Z,21.10
2022-10-11T14:07:59.710Z,21.20
2022-10-11T14:10:28.173Z,21.20
2022-10-11T14:13:05.471Z,21.20
2022-10-11T14:15:35.806Z,21.20
2022-10-11T14:18:43.572Z,21.30
2022-10-11T14:21:33.309Z,21.30
2022-10-11T14:24:05.034Z,21.50
2022-10-11T14:26:35.871Z,21.60
2022-10-11T14:29:08.003Z,21.80
2022-10-11T14:31:41.310Z,21.90
2022-10-11T14:34:17.547Z,22.00
2022-10-11T14:36:46.240Z,22.10
2022-10-11T14:39:16.679Z,22.20
2022-10-11T14:41:44.912Z,22.20
2022-10-11T14:44:13.265Z,22.30
2022-10-11T14:46:42.666Z,22.40
2022-10-11T14:49:16.190Z,22.40
2022-10-11T14:51:45.667Z,22.50
2022-10-11T14:54:15.381Z,22.50
2022-10-11T14:56:43.710Z,22.60
2022-10-11T14:59:14.268Z,22.60
2022-10-11T15:01:42.678Z,22.60
2022-10-11T15:04:11.446Z,22.60
2022-10-11T15:06:42.755Z,22.60
2022-10-11T15:09:11.426Z,22.60
2022-10-11T15:11:40.531Z,22.50
2022-10-11T15:14:08.629Z,22.50
2022-10-11T15:16:37.493Z,22.40
2022-10-11T15:19:05.630Z,22.30
2022-10-11T15:21:35.392Z,22.20
2022-10-11T15:24:05.512Z,22.10
2022-10-11T15:26:34.677Z,22.00
2022-10-11T15:29:03.082Z,21.90
2022-10-11T15:31:31.201Z,21.80
2022-10-11T15:34:01.747Z,21.70
2022-10-11T15:36:30.715Z,21.60
2022-10-11T15:38:58.963Z,21.50
2022-10-11T15:41:28.940Z,21.40
2022-10-11T15:43:57.052Z,21.30
2022-10-11T15:46:25.176Z,21.20
2022-10-11T15:48:54.425Z,21.10
2022-10-11T15:51:23.027Z,21.10
2022-10-11T15:53:51.575Z,21.00
2022-10-11T15:56:19.766Z,20.90
2022-10-11T15:58:49.459Z,20.80
2022-10-11T16:01:19.677Z,20.70
2022-10-11T16:03:49.200Z,20.60
2022-10-11T16:06:17.400Z,20.60
2022-10-11T16:08:46.310Z,20.50
2022-10-11T16:11:14.991Z,20.40
2022-10-11T16:13:43.126Z,20.40
2022-10-11T16:16:13.319Z,20.30
2022-10-11T16:18:42.063Z,20.20
2022-10-11T16:21:11.585Z,20.20
2022-10-11T16:23:40.085Z,20.10
2022-10-11T16:26:10.492Z,20.00
2022-10-11T16:28:39.907Z,19.90
2022-10-11T16:31:09.523Z,19.90
2022-10-11T16:33:45.716Z,19.80
2022-10-11T16:36:36.467Z,19.70
2022-10-11T16:39:08.847Z,19.60
2022-10-11T16:41:37.545Z,19.60
2022-10-11T16:44:06.110Z,19.50
2022-10-11T16:46:34.974Z,19.40
2022-10-11T16:49:05.260Z,19.30
2022-10-11T16:51:33.359Z,19.30
2022-10-11T16:54:02.545Z,19.20
2022-10-11T16:56:30.601Z,19.10
2022-10-11T16:58:59.430Z,19.10
2022-10-11T17:01:28.401Z,19.00
2022-10-11T17:03:56.993Z,18.90
2022-10-11T17:06:27.334Z,18.90
2022-10-11T17:08:56.027Z,18.80
2022-10-11T17:11:24.382Z,18.70
2022-10-11T17:13:54.054Z,18.70
2022-10-11T17:16:23.249Z,18.60
2022-10-11T17:18:51.983Z,18.50
2022-10-11T17:21:21.771Z,18.50
2022-10-11T17:23:51.968Z,18.50
2022-10-11T17:26:23.705Z,18.40
2022-10-11T17:28:51.962Z,18.30
2022-10-11T17:31:20.210Z,18.30
2022-10-11T17:33:48.697Z,18.30
2022-10-11T17:36:22.183Z,18.20
2022-10-11T17:38:52.868Z,18.20
2022-10-11T17:41:21.695Z,18.10
2022-10-11T17:43:50.117Z,18.10
2022-10-11T17:46:22.107Z,18.00
2022-10-11T17:48:54.196Z,18.00
2022-10-11T17:51:22.655Z,17.90
2022-10-11T17:53:52.829Z,17.90
2022-10-11T17:56:27.630Z,17.80
2022-10-11T17:58:58.864Z,17.80
2022-10-11T18:01:29.617Z,17.70
2022-10-11T18:03:59.052Z,17.70
2022-10-11T18:06:29.454Z,17.70
2022-10-11T18:09:02.226Z,17.70
2022-10-11T18:11:31.658Z,17.60
2022-10-11T18:14:00.305Z,17.60
2022-10-11T18:16:30.593Z,17.60
2022-10-11T18:18:59.916Z,17.60
2022-10-11T18:21:34.314Z,17.60
2022-10-11T18:24:08.324Z,17.60
2022-10-11T18:26:36.428Z,17.60
2022-10-11T18:29:05.411Z,17.60
2022-10-11T18:31:35.429Z,17.60
2022-10-11T18:34:04.503Z,17.60
2022-10-11T18:36:33.272Z,17.60
2022-10-11T18:39:05.520Z,17.60
2022-10-11T18:41:36.656Z,17.60
2022-10-11T18:44:06.717Z,17.60
2022-10-11T18:46:36.123Z,17.60
2022-10-11T18:49:04.933Z,17.60
2022-10-11T18:51:34.627Z,17.60
2022-10-11T18:54:06.238Z,17.60
2022-10-11T18:56:36.550Z,17.60
2022-10-11T18:59:06.110Z,17.60
2022-10-11T19:01:36.193Z,17.60
2022-10-11T19:04:06.649Z,17.60
2022-10-11T19:06:37.447Z,17.60
2022-10-11T19:09:09.223Z,17.60
2022-10-11T19:11:38.446Z,17.50
2022-10-11T19:14:08.401Z,17.60
2022-10-11T19:16:40.088Z,17.60
2022-10-11T19:19:10.053Z,17.50
2022-10-11T19:21:38.503Z,17.50
2022-10-11T19:24:09.389Z,17.50
2022-10-11T19:26:39.395Z,17.50
2022-10-11T19:29:09.325Z,17.50
2022-10-11T19:31:41.901Z,17.50
2022-10-11T19:34:10.677Z,17.50
2022-10-11T19:36:42.279Z,17.40
2022-10-11T19:39:13.059Z,17.40
2022-10-11T19:41:42.400Z,17.40
2022-10-11T19:44:11.736Z,17.40
2022-10-11T19:46:57.558Z,17.40
2022-10-11T19:49:27.492Z,17.30
2022-10-11T19:51:56.211Z,17.30
2022-10-11T19:54:25.710Z,17.30
2022-10-11T19:56:54.268Z,17.30
2022-10-11T19:59:22.391Z,17.30
2022-10-11T20:01:52.992Z,17.30
2022-10-11T20:04:50.503Z,17.20
2022-10-11T20:07:10.837Z,17.20
2022-10-11T20:09:41.028Z,17.20
2022-10-11T20:12:09.568Z,17.20
2022-10-11T20:14:38.090Z,17.20
2022-10-11T20:17:06.193Z,17.20
2022-10-11T20:19:35.697Z,17.10
2022-10-11T20:22:03.862Z,17.10
2022-10-11T20:24:34.375Z,17.10
2022-10-11T20:27:06.147Z,17.10
2022-10-11T20:29:34.324Z,17.10
2022-10-11T20:32:02.484Z,17.10
2022-10-11T20:34:30.764Z,17.10
2022-10-11T20:36:59.395Z,17.10
2022-10-11T20:39:27.762Z,17.10
2022-10-11T20:41:55.849Z,17.10
2022-10-11T20:44:25.516Z,17.10
2022-10-11T20:46:54.038Z,17.10
2022-10-11T20:49:22.971Z,17.10
2022-10-11T20:51:52.119Z,17.10
2022-10-11T20:54:20.258Z,17.10
2022-10-11T20:56:48.423Z,17.10
2022-10-11T20:59:16.486Z,17.10
2022-10-11T21:01:46.317Z,17.10
2022-10-11T21:04:19.489Z,17.00
2022-10-11T21:06:48.771Z,17.00
2022-10-11T21:09:17.424Z,17.00
2022-10-11T21:11:45.954Z,17.00
2022-10-11T21:14:14.763Z,17.00
2022-10-11T21:16:43.147Z,17.00
2022-10-11T21:19:16.764Z,17.00
2022-10-11T21:21:52.501Z,17.00
2022-10-11T21:24:22.343Z,17.00
2022-10-11T21:26:50.897Z,17.00
2022-10-11T21:29:19.748Z,17.00
2022-10-11T21:31:47.866Z,17.00
2022-10-11T21:34:17.968Z,17.00
2022-10-11T21:36:46.088Z,17.00
2022-10-11T21:39:14.258Z,16.90
2022-10-11T21:41:43.050Z,16.90
2022-10-11T21:44:11.706Z,16.90
2022-10-11T21:47:05.474Z,16.90
2022-10-11T21:49:29.589Z,16.90
2022-10-11T21:51:57.715Z,16.90
2022-10-11T21:54:25.870Z,16.90
2022-10-11T21:56:54.396Z,16.90
2022-10-11T21:59:22.581Z,16.80
2022-10-11T22:01:50.849Z,16.80
2022-10-11T22:04:19.478Z,16.80
2022-10-11T22:06:49.015Z,16.80
2022-10-11T22:09:17.585Z,16.80
2022-10-11T22:11:45.668Z,16.80
2022-10-11T22:14:14.211Z,16.80
2022-10-11T22:16:42.290Z,16.70
2022-10-11T22:19:10.403Z,16.70
2022-10-11T22:21:43.987Z,16.70
2022-10-11T22:24:14.501Z,16.90
2022-10-11T22:26:43.042Z,16.70
2022-10-11T22:29:11.597Z,16.70
2022-10-11T22:31:39.719Z,16.70
2022-10-11T22:34:08.287Z,16.70
2022-10-11T22:36:36.491Z,16.70
2022-10-11T22:39:08.336Z,16.70
2022-10-11T22:41:38.600Z,16.70
2022-10-11T22:44:06.957Z,16.60
2022-10-11T22:46:35.511Z,16.60
2022-10-11T22:49:04.092Z,16.60
2022-10-11T22:51:32.246Z,16.60
2022-10-11T22:54:00.776Z,16.60
2022-10-11T22:56:29.386Z,16.50
2022-10-11T22:59:00.285Z,16.50
2022-10-11T23:01:28.438Z,16.50
2022-10-11T23:03:56.690Z,16.50
2022-10-11T23:06:25.273Z,16.50
2022-10-11T23:08:53.371Z,16.50
2022-10-11T23:11:21.904Z,16.40
2022-10-11T23:13:50.000Z,16.40
2022-10-11T23:16:19.505Z,16.40
2022-10-11T23:18:47.598Z,16.40
2022-10-11T23:21:15.663Z,16.40
2022-10-11T23:23:44.354Z,16.40
2022-10-11T23:26:14.516Z,16.40
2022-10-11T23:28:43.475Z,16.30
2022-10-11T23:31:14.505Z,16.30
2022-10-11T23:33:44.323Z,16.30
2022-10-11T23:36:17.044Z,16.30
2022-10-11T23:38:45.334Z,16.30
2022-10-11T23:41:13.877Z,16.20
2022-10-11T23:43:42.016Z,16.20
2022-10-11T23:46:10.100Z,16.20
2022-10-11T23:48:38.708Z,16.20
2022-10-11T23:51:08.640Z,16.20
2022-10-11T23:53:37.507Z,16.20
2022-10-11T23:56:06.832Z,16.20
2022-10-11T23:58:34.925Z,16.10
